createdAt,value
2019-04-29T00:01:47.158Z,102.10
2019-04-29T00:04:16.716Z,101.47
2019-04-29T00:06:46.817Z,105.87
2019-04-29T00:09:17.671Z,114.57
2019-04-29T00:11:47.381Z,112.97
2019-04-29T00:14:16.904Z,106.40
2019-04-29T00:16:48.227Z,115.13
2019-04-29T00:19:19.371Z,107.20
2019-04-29T00:21:49.127Z,111.33
2019-04-29T00:24:18.701Z,103.47
2019-04-29T00:26:48.295Z,112.50
2019-04-29T00:29:17.906Z,102.53
2019-04-29T00:31:47.504Z,122.70
2019-04-29T00:34:17.206Z,126.40
2019-04-29T00:36:48.473Z,127.40
2019-04-29T00:39:20.832Z,136.07
2019-04-29T00:41:51.984Z,137.63
2019-04-29T00:44:21.992Z,141.13
2019-04-29T00:46:51.801Z,124.13
2019-04-29T00:49:21.618Z,134.17
2019-04-29T00:51:51.278Z,179.97
2019-04-29T00:54:22.472Z,181.80
2019-04-29T00:56:52.077Z,189.17
2019-04-29T00:59:21.512Z,192.20
2019-04-29T01:01:51.098Z,192.10
2019-04-29T01:04:20.661Z,177.63
2019-04-29T01:06:50.307Z,172.47
2019-04-29T01:09:20.529Z,167.53
2019-04-29T01:11:50.126Z,178.53
2019-04-29T01:14:19.843Z,166.27
2019-04-29T01:16:49.417Z,177.60
2019-04-29T01:19:19.058Z,180.07
2019-04-29T01:21:48.732Z,176.73
2019-04-29T01:24:18.195Z,202.87
2019-04-29T01:26:50.457Z,208.00
2019-04-29T01:29:21.574Z,181.87
2019-04-29T01:31:51.167Z,178.00
2019-04-29T01:34:22.418Z,181.67
2019-04-29T01:36:51.949Z,187.93
2019-04-29T01:39:23.110Z,174.53
2019-04-29T01:41:54.320Z,189.43
2019-04-29T01:44:25.564Z,189.33
2019-04-29T01:46:55.073Z,249.40
2019-04-29T01:49:24.804Z,228.53
2019-04-29T01:51:54.390Z,329.70
2019-04-29T01:54:25.216Z,326.80
2019-04-29T01:56:54.730Z,437.17
2019-04-29T01:59:24.254Z,572.40
2019-04-29T02:01:54.045Z,828.40
2019-04-29T02:04:23.656Z,776.77
2019-04-29T02:06:53.130Z,851.57
2019-04-29T02:09:24.401Z,413.80
2019-04-29T02:11:53.966Z,388.73
2019-04-29T02:14:23.714Z,244.77
2019-04-29T02:16:53.295Z,203.07
2019-04-29T02:19:22.754Z,231.63
2019-04-29T02:21:54.068Z,258.87
2019-04-29T02:24:23.562Z,197.03
2019-04-29T02:26:53.037Z,193.73
2019-04-29T02:29:22.790Z,172.23
2019-04-29T02:31:52.231Z,230.50
2019-04-29T02:34:21.695Z,220.53
2019-04-29T02:36:51.120Z,216.40
2019-04-29T02:39:22.277Z,301.83
2019-04-29T02:41:53.390Z,291.47
2019-04-29T02:44:22.810Z,246.63
2019-04-29T02:46:52.392Z,712.33
2019-04-29T02:49:21.888Z,559.20
2019-04-29T02:51:53.095Z,427.80
2019-04-29T02:54:24.663Z,410.47
2019-04-29T02:56:55.790Z,265.10
2019-04-29T02:59:26.814Z,314.27
2019-04-29T03:01:57.997Z,353.67
2019-04-29T03:04:29.227Z,367.33
2019-04-29T03:07:00.037Z,945.13
2019-04-29T03:09:31.363Z,836.33
2019-04-29T03:12:01.882Z,264.70
2019-04-29T03:14:31.688Z,322.87
2019-04-29T03:17:01.608Z,252.43
2019-04-29T03:19:32.889Z,587.30
2019-04-29T03:22:04.092Z,746.90
2019-04-29T03:24:33.705Z,645.17
2019-04-29T03:27:03.549Z,423.60
2019-04-29T03:29:33.117Z,316.73
2019-04-29T03:32:02.855Z,480.60
2019-04-29T03:34:32.376Z,756.70
2019-04-29T03:37:01.941Z,762.63
2019-04-29T03:39:31.443Z,707.03
2019-04-29T03:42:00.993Z,634.03
2019-04-29T03:44:30.560Z,391.30
2019-04-29T03:47:00.165Z,250.80
2019-04-29T03:49:29.674Z,447.90
2019-04-29T03:51:59.157Z,405.53
2019-04-29T03:54:28.575Z,613.67
2019-04-29T03:56:58.028Z,332.63
2019-04-29T03:59:27.615Z,393.77
2019-04-29T04:01:58.739Z,473.83
2019-04-29T04:04:29.954Z,883.47
2019-04-29T04:07:04.023Z,657.63
2019-04-29T04:09:32.281Z,539.73
2019-04-29T04:12:01.767Z,744.30
2019-04-29T04:14:31.372Z,395.87
2019-04-29T04:17:00.621Z,689.23
2019-04-29T04:19:32.796Z,319.80
2019-04-29T04:22:02.309Z,781.50
2019-04-29T04:24:31.948Z,684.97
2019-04-29T04:27:01.511Z,392.27
2019-04-29T04:29:31.035Z,292.60
2019-04-29T04:32:00.452Z,578.93
2019-04-29T04:34:30.080Z,591.10
2019-04-29T04:37:00.466Z,329.17
2019-04-29T04:39:31.744Z,549.97
2019-04-29T04:42:01.125Z,553.30
2019-04-29T04:44:32.285Z,578.67
2019-04-29T04:47:01.797Z,638.33
2019-04-29T04:49:31.504Z,748.90
2019-04-29T04:52:02.118Z,682.40
2019-04-29T04:54:31.727Z,534.50
2019-04-29T04:57:01.341Z,424.30
2019-04-29T04:59:30.923Z,505.27
2019-04-29T05:02:00.454Z,316.97
2019-04-29T05:04:29.911Z,245.43
2019-04-29T05:06:59.468Z,206.77
2019-04-29T05:09:28.938Z,189.37
2019-04-29T05:11:58.513Z,215.70
2019-04-29T05:14:28.283Z,183.80
2019-04-29T05:16:57.994Z,159.00
2019-04-29T05:19:27.599Z,138.87
2019-04-29T05:21:57.092Z,150.10
2019-04-29T05:24:26.557Z,131.83
2019-04-29T05:26:56.057Z,141.20
2019-04-29T05:29:28.586Z,131.93
2019-04-29T05:31:56.741Z,123.10
2019-04-29T05:34:28.016Z,139.50
2019-04-29T05:36:59.130Z,139.47
2019-04-29T05:39:30.412Z,143.70
2019-04-29T05:41:59.899Z,133.17
2019-04-29T05:44:31.093Z,124.80
2019-04-29T05:47:02.285Z,110.17
2019-04-29T05:49:33.462Z,109.20
2019-04-29T05:52:04.649Z,103.40
2019-04-29T05:54:35.584Z,96.97
2019-04-29T05:57:05.431Z,100.40
2019-04-29T05:59:34.917Z,92.30
2019-04-29T06:02:04.508Z,86.77
2019-04-29T06:04:33.979Z,84.47
2019-04-29T06:07:03.519Z,77.63
2019-04-29T06:09:33.044Z,74.10
2019-04-29T06:12:03.531Z,76.73
2019-04-29T06:14:33.080Z,81.33
2019-04-29T06:17:07.518Z,76.90
2019-04-29T06:19:35.107Z,73.83
2019-04-29T06:22:04.844Z,73.87
2019-04-29T06:24:36.913Z,72.57
2019-04-29T06:27:06.574Z,68.67
2019-04-29T06:29:36.242Z,68.00
2019-04-29T06:32:05.851Z,60.87
2019-04-29T06:34:39.586Z,65.87
2019-04-29T06:37:06.570Z,64.03
2019-04-29T06:39:36.036Z,66.70
2019-04-29T06:42:05.635Z,70.33
2019-04-29T06:44:35.112Z,70.77
2019-04-29T06:47:04.758Z,66.77
2019-04-29T06:49:34.316Z,58.83
2019-04-29T06:52:03.839Z,63.07
2019-04-29T06:54:33.284Z,58.73
2019-04-29T06:57:02.906Z,61.57
2019-04-29T06:59:32.427Z,64.67
2019-04-29T07:02:01.911Z,51.77
2019-04-29T07:04:38.467Z,51.57
2019-04-29T07:07:02.712Z,48.93
2019-04-29T07:09:32.189Z,53.68
2019-04-29T07:12:01.999Z,53.80
2019-04-29T07:14:33.238Z,56.13
2019-04-29T07:17:05.551Z,53.03
2019-04-29T07:19:34.124Z,47.33
2019-04-29T07:22:03.778Z,51.83
2019-04-29T07:24:33.305Z,49.97
2019-04-29T07:27:04.360Z,52.80
2019-04-29T07:29:33.978Z,48.05
2019-04-29T07:32:04.792Z,50.98
2019-04-29T07:34:39.098Z,46.30
2019-04-29T07:37:06.201Z,53.07
2019-04-29T07:39:35.695Z,46.93
2019-04-29T07:42:05.166Z,51.53
2019-04-29T07:44:43.825Z,42.53
2019-04-29T07:47:07.316Z,43.80
2019-04-29T07:49:36.831Z,43.40
2019-04-29T07:52:09.882Z,50.00
2019-04-29T07:54:37.576Z,46.47
2019-04-29T07:57:07.153Z,42.97
2019-04-29T07:59:38.260Z,39.98
2019-04-29T08:02:07.695Z,43.98
2019-04-29T08:04:40.221Z,45.30
2019-04-29T08:07:08.440Z,44.93
2019-04-29T08:09:39.847Z,41.25
2019-04-29T08:12:11.166Z,46.28
2019-04-29T08:14:40.833Z,46.57
2019-04-29T08:17:10.223Z,38.38
2019-04-29T08:19:39.689Z,40.78
2019-04-29T08:22:09.249Z,39.90
2019-04-29T08:24:38.715Z,36.20
2019-04-29T08:27:08.203Z,41.77
2019-04-29T08:29:37.651Z,39.30
2019-04-29T08:32:07.182Z,37.88
2019-04-29T08:34:36.771Z,35.70
2019-04-29T08:37:06.242Z,31.85
2019-04-29T08:39:35.740Z,36.03
2019-04-29T08:42:09.183Z,33.13
2019-04-29T08:44:40.580Z,31.62
2019-04-29T08:47:11.738Z,33.95
2019-04-29T08:49:41.301Z,38.15
2019-04-29T08:52:10.921Z,33.95
2019-04-29T08:54:40.350Z,36.27
2019-04-29T08:57:09.878Z,37.50
2019-04-29T08:59:39.503Z,31.27
2019-04-29T09:02:11.370Z,33.53
2019-04-29T09:04:52.977Z,31.55
2019-04-29T09:07:17.090Z,28.38
2019-04-29T09:09:43.586Z,31.62
2019-04-29T09:12:12.997Z,30.52
2019-04-29T09:14:42.474Z,30.77
2019-04-29T09:17:20.130Z,30.00
2019-04-29T09:19:43.176Z,27.70
2019-04-29T09:22:15.459Z,25.60
2019-04-29T09:24:48.224Z,34.05
2019-04-29T09:27:19.498Z,32.23
2019-04-29T09:29:49.059Z,31.07
2019-04-29T09:32:18.432Z,32.38
2019-04-29T09:34:47.837Z,30.95
2019-04-29T09:37:18.613Z,27.50
2019-04-29T09:39:48.409Z,29.60
2019-04-29T09:42:17.549Z,28.32
2019-04-29T09:44:48.674Z,31.93
2019-04-29T09:47:18.224Z,31.00
2019-04-29T09:49:47.681Z,33.90
2019-04-29T09:52:17.147Z,33.20
2019-04-29T09:54:46.675Z,33.95
2019-04-29T09:57:16.173Z,29.92
2019-04-29T09:59:47.343Z,34.92
2019-04-29T10:02:18.735Z,30.43
2019-04-29T10:04:56.886Z,33.28
2019-04-29T10:07:23.487Z,34.98
2019-04-29T10:09:57.323Z,29.60
2019-04-29T10:12:24.827Z,35.05
2019-04-29T10:14:54.287Z,35.73
2019-04-29T10:17:25.596Z,33.05
2019-04-29T10:19:56.822Z,37.08
2019-04-29T10:22:26.332Z,36.33
2019-04-29T10:24:55.816Z,29.48
2019-04-29T10:27:25.284Z,32.33
2019-04-29T10:29:57.130Z,30.50
2019-04-29T10:32:26.870Z,34.85
2019-04-29T10:34:56.417Z,32.28
2019-04-29T10:37:31.472Z,33.53
2019-04-29T10:40:10.858Z,37.17
2019-04-29T10:42:34.227Z,37.45
2019-04-29T10:45:07.831Z,34.20
2019-04-29T10:47:39.183Z,36.38
2019-04-29T10:50:15.504Z,37.83
2019-04-29T10:52:43.537Z,34.03
2019-04-29T10:55:14.551Z,32.28
2019-04-29T10:57:44.906Z,38.85
2019-04-29T11:00:21.764Z,35.50
2019-04-29T11:02:51.147Z,36.80
2019-04-29T11:05:22.706Z,35.17
2019-04-29T11:07:54.031Z,34.63
2019-04-29T11:10:25.932Z,36.48
2019-04-29T11:12:55.727Z,37.50
2019-04-29T11:15:30.649Z,34.05
2019-04-29T11:18:00.600Z,46.13
2019-04-29T11:20:29.987Z,31.68
2019-04-29T11:23:01.311Z,35.13
2019-04-29T11:25:32.762Z,39.40
2019-04-29T11:28:02.601Z,41.40
2019-04-29T11:30:39.536Z,39.65
2019-04-29T11:33:08.471Z,41.50
2019-04-29T11:35:39.495Z,40.45
2019-04-29T11:38:11.017Z,37.42
2019-04-29T11:40:43.619Z,41.25
2019-04-29T11:43:15.653Z,43.23
2019-04-29T11:45:45.408Z,38.33
2019-04-29T11:48:15.025Z,42.90
2019-04-29T11:50:50.208Z,37.00
2019-04-29T11:53:17.509Z,37.45
2019-04-29T11:55:48.391Z,49.75
2019-04-29T11:58:17.844Z,52.35
2019-04-29T12:00:52.095Z,43.78
2019-04-29T12:03:23.517Z,40.08
2019-04-29T12:05:54.619Z,58.38
2019-04-29T12:08:24.092Z,39.50
2019-04-29T12:11:06.653Z,36.05
2019-04-29T12:13:28.269Z,38.38
2019-04-29T12:15:59.644Z,38.90
2019-04-29T12:18:34.035Z,42.53
2019-04-29T12:21:03.656Z,41.83
2019-04-29T12:23:34.343Z,38.90
2019-04-29T12:26:05.051Z,36.90
2019-04-29T12:28:37.899Z,39.35
2019-04-29T12:31:10.372Z,37.67
2019-04-29T12:33:40.515Z,40.63
2019-04-29T12:36:11.627Z,40.98
2019-04-29T12:38:48.824Z,35.15
2019-04-29T12:41:20.450Z,36.42
2019-04-29T12:43:48.489Z,39.37
2019-04-29T12:46:19.403Z,41.02
2019-04-29T12:48:49.193Z,39.45
2019-04-29T12:51:18.921Z,39.38
2019-04-29T12:53:48.410Z,40.08
2019-04-29T12:56:19.639Z,45.25
2019-04-29T12:58:50.600Z,44.35
2019-04-29T13:01:22.382Z,43.38
2019-04-29T13:03:53.511Z,44.90
2019-04-29T13:06:38.493Z,46.83
2019-04-29T13:08:57.491Z,48.13
2019-04-29T13:11:36.106Z,43.65
2019-04-29T13:14:01.862Z,54.27
2019-04-29T13:16:32.366Z,43.20
2019-04-29T13:19:11.689Z,50.28
2019-04-29T13:21:34.804Z,50.63
2019-04-29T13:24:13.475Z,45.60
2019-04-29T13:26:42.311Z,50.30
2019-04-29T13:29:08.642Z,42.85
2019-04-29T13:31:39.364Z,46.92
2019-04-29T13:34:23.537Z,45.00
2019-04-29T13:36:43.554Z,41.95
2019-04-29T13:39:13.181Z,45.33
2019-04-29T13:41:56.869Z,41.13
2019-04-29T13:44:19.299Z,35.92
2019-04-29T13:46:51.088Z,39.18
2019-04-29T13:49:20.431Z,44.93
2019-04-29T13:51:51.671Z,41.42
2019-04-29T13:54:21.132Z,37.42
2019-04-29T13:56:55.920Z,35.23
2019-04-29T13:59:23.388Z,37.95
2019-04-29T14:02:01.235Z,38.92
2019-04-29T14:04:27.478Z,38.85
2019-04-29T14:06:57.801Z,32.28
2019-04-29T14:09:27.522Z,29.98
2019-04-29T14:12:02.128Z,35.48
2019-04-29T14:14:28.445Z,40.38
2019-04-29T14:17:17.165Z,35.63
2019-04-29T14:19:44.524Z,32.93
2019-04-29T14:22:00.327Z,29.70
2019-04-29T14:24:31.003Z,29.15
2019-04-29T14:27:00.710Z,26.52
2019-04-29T14:29:31.353Z,29.00
2019-04-29T14:32:01.518Z,29.27
2019-04-29T14:34:34.788Z,29.92
2019-04-29T14:37:19.726Z,26.37
2019-04-29T14:39:37.627Z,22.82
2019-04-29T14:42:08.814Z,22.60
2019-04-29T14:44:39.950Z,18.77
2019-04-29T14:47:11.251Z,24.07
2019-04-29T14:49:42.307Z,19.00
2019-04-29T14:52:14.856Z,21.17
2019-04-29T14:54:43.558Z,20.27
2019-04-29T14:57:13.370Z,25.55
2019-04-29T14:59:42.865Z,28.80
2019-04-29T15:02:17.383Z,31.30
2019-04-29T15:04:45.546Z,30.08
2019-04-29T15:07:15.089Z,40.05
2019-04-29T15:09:47.109Z,30.08
2019-04-29T15:12:21.900Z,29.52
2019-04-29T15:14:50.059Z,32.95
2019-04-29T15:17:21.541Z,31.85
2019-04-29T15:19:55.656Z,34.43
2019-04-29T15:22:25.579Z,28.85
2019-04-29T15:24:55.036Z,32.67
2019-04-29T15:27:24.450Z,28.62
2019-04-29T15:29:53.925Z,26.17
2019-04-29T15:32:23.819Z,30.57
2019-04-29T15:34:53.614Z,30.10
2019-04-29T15:37:23.096Z,29.30
2019-04-29T15:39:52.696Z,30.00
2019-04-29T15:42:22.245Z,27.85
2019-04-29T15:44:55.872Z,27.10
2019-04-29T15:47:27.537Z,30.70
2019-04-29T15:49:55.863Z,32.85
2019-04-29T15:52:27.568Z,38.83
2019-04-29T15:54:56.781Z,27.17
2019-04-29T15:57:26.482Z,27.30
2019-04-29T16:00:00.042Z,29.52
2019-04-29T16:02:27.291Z,34.53
2019-04-29T16:04:58.558Z,24.23
2019-04-29T16:07:29.670Z,28.87
2019-04-29T16:10:00.867Z,30.00
2019-04-29T16:12:32.436Z,25.85
2019-04-29T16:15:02.074Z,29.65
2019-04-29T16:17:51.006Z,28.52
2019-04-29T16:20:20.613Z,31.93
2019-04-29T16:22:54.225Z,30.35
2019-04-29T16:25:21.508Z,29.27
2019-04-29T16:27:53.391Z,29.02
2019-04-29T16:30:26.161Z,26.35
2019-04-29T16:32:54.195Z,28.30
2019-04-29T16:35:26.021Z,26.27
2019-04-29T16:37:55.089Z,33.65
2019-04-29T16:40:26.349Z,35.20
2019-04-29T16:42:57.609Z,36.28
2019-04-29T16:45:28.858Z,26.77
2019-04-29T16:47:58.350Z,25.20
2019-04-29T16:50:27.978Z,34.08
2019-04-29T16:52:57.660Z,26.02
2019-04-29T16:55:27.289Z,24.40
2019-04-29T16:57:59.776Z,22.55
2019-04-29T17:00:29.899Z,24.65
2019-04-29T17:02:59.690Z,18.55
2019-04-29T17:05:29.449Z,21.93
2019-04-29T17:07:59.084Z,24.23
2019-04-29T17:10:30.396Z,18.00
2019-04-29T17:12:59.986Z,21.68
2019-04-29T17:15:30.096Z,18.92
2019-04-29T17:17:59.625Z,17.48
2019-04-29T17:20:30.534Z,19.87
2019-04-29T17:23:00.085Z,17.20
2019-04-29T17:25:29.728Z,16.77
2019-04-29T17:28:01.193Z,17.83
2019-04-29T17:30:32.559Z,18.62
2019-04-29T17:33:04.558Z,19.77
2019-04-29T17:35:36.391Z,21.20
2019-04-29T17:38:06.181Z,24.82
2019-04-29T17:40:35.952Z,15.53
2019-04-29T17:43:07.426Z,21.35
2019-04-29T17:45:38.831Z,20.80
2019-04-29T17:48:10.124Z,20.23
2019-04-29T17:50:46.203Z,20.13
2019-04-29T17:53:15.281Z,33.40
2019-04-29T17:55:46.715Z,23.02
2019-04-29T17:58:19.826Z,19.10
2019-04-29T18:00:58.283Z,17.87
2019-04-29T18:03:25.211Z,19.85
2019-04-29T18:05:57.636Z,18.73
2019-04-29T18:08:28.981Z,25.43
2019-04-29T18:11:04.755Z,20.45
2019-04-29T18:13:32.650Z,20.72
2019-04-29T18:16:04.646Z,23.85
2019-04-29T18:18:45.835Z,19.12
2019-04-29T18:21:08.060Z,19.87
2019-04-29T18:23:39.169Z,21.00
2019-04-29T18:26:10.385Z,20.40
2019-04-29T18:28:39.916Z,23.35
2019-04-29T18:31:11.220Z,21.13
2019-04-29T18:33:40.844Z,20.70
2019-04-29T18:36:19.603Z,18.07
2019-04-29T18:38:42.423Z,18.37
2019-04-29T18:41:16.464Z,46.60
2019-04-29T18:43:45.216Z,20.75
2019-04-29T18:46:16.654Z,19.43
2019-04-29T18:48:46.157Z,18.73
2019-04-29T18:51:20.830Z,20.70
2019-04-29T18:53:49.903Z,20.25
2019-04-29T18:56:19.516Z,16.50
2019-04-29T18:58:50.334Z,23.17
2019-04-29T19:01:23.937Z,25.60
2019-04-29T19:03:55.731Z,21.60
2019-04-29T19:06:25.413Z,22.43
2019-04-29T19:09:01.553Z,19.52
2019-04-29T19:11:32.134Z,25.23
2019-04-29T19:13:57.797Z,19.47
2019-04-29T19:16:27.634Z,21.13
2019-04-29T19:19:01.571Z,20.13
2019-04-29T19:21:31.483Z,21.20
2019-04-29T19:24:00.765Z,24.73
2019-04-29T19:26:30.737Z,24.77
2019-04-29T19:29:01.394Z,19.57
2019-04-29T19:31:36.882Z,17.83
2019-04-29T19:34:05.358Z,25.07
2019-04-29T19:36:37.463Z,19.10
2019-04-29T19:39:08.558Z,16.97
2019-04-29T19:41:39.755Z,25.33
2019-04-29T19:44:09.169Z,22.20
2019-04-29T19:46:41.277Z,27.73
2019-04-29T19:49:10.251Z,21.07
2019-04-29T19:51:43.726Z,22.67
2019-04-29T19:54:11.173Z,23.73
2019-04-29T19:56:40.881Z,20.30
2019-04-29T19:59:13.457Z,26.27
2019-04-29T20:01:42.157Z,18.80
2019-04-29T20:04:17.711Z,20.73
2019-04-29T20:06:47.964Z,22.33
2019-04-29T20:09:22.226Z,26.65
2019-04-29T20:11:49.608Z,22.00
2019-04-29T20:14:26.233Z,21.63
2019-04-29T20:16:57.266Z,23.43
2019-04-29T20:19:27.302Z,27.40
2019-04-29T20:22:00.458Z,22.43
2019-04-29T20:24:40.885Z,20.27
2019-04-29T20:27:10.635Z,25.13
2019-04-29T20:29:40.525Z,24.10
2019-04-29T20:32:10.475Z,22.63
2019-04-29T20:34:40.438Z,23.20
2019-04-29T20:37:10.819Z,20.70
2019-04-29T20:39:41.338Z,22.57
2019-04-29T20:42:11.108Z,21.13
2019-04-29T20:44:44.477Z,21.20
2019-04-29T20:47:20.301Z,25.40
2019-04-29T20:49:43.302Z,28.10
2019-04-29T20:52:20.302Z,23.30
2019-04-29T20:54:52.632Z,26.53
2019-04-29T20:57:18.826Z,23.70
2019-04-29T20:59:50.407Z,30.57
2019-04-29T21:02:30.317Z,22.00
2019-04-29T21:04:50.811Z,25.50
2019-04-29T21:07:23.925Z,24.50
2019-04-29T21:09:52.829Z,24.53
2019-04-29T21:12:25.556Z,30.23
2019-04-29T21:14:59.408Z,22.10
2019-04-29T21:17:32.007Z,25.83
2019-04-29T21:20:01.175Z,22.57
2019-04-29T21:22:31.015Z,20.73
2019-04-29T21:25:00.513Z,22.90
2019-04-29T21:27:29.978Z,21.27
2019-04-29T21:29:59.550Z,24.83
2019-04-29T21:32:30.478Z,23.17
2019-04-29T21:35:05.625Z,20.27
2019-04-29T21:37:39.989Z,25.03
2019-04-29T21:40:16.824Z,24.97
2019-04-29T21:42:41.990Z,29.87
2019-04-29T21:45:13.404Z,22.83
2019-04-29T21:47:45.734Z,26.27
2019-04-29T21:50:16.453Z,20.00
2019-04-29T21:52:46.844Z,21.87
2019-04-29T21:55:20.574Z,24.73
2019-04-29T21:57:48.258Z,21.23
2019-04-29T22:00:24.505Z,23.33
2019-04-29T22:02:55.302Z,19.90
2019-04-29T22:05:25.151Z,20.93
2019-04-29T22:07:54.961Z,23.00
2019-04-29T22:10:28.857Z,22.03
2019-04-29T22:13:01.787Z,19.73
2019-04-29T22:15:32.721Z,19.23
2019-04-29T22:18:01.301Z,17.60
2019-04-29T22:20:29.429Z,16.60
2019-04-29T22:22:59.007Z,19.23
2019-04-29T22:25:28.483Z,20.07
2019-04-29T22:27:58.055Z,20.97
2019-04-29T22:30:27.635Z,23.97
2019-04-29T22:32:58.891Z,19.63
2019-04-29T22:35:32.704Z,18.07
2019-04-29T22:37:59.497Z,19.27
2019-04-29T22:40:29.051Z,20.67
2019-04-29T22:43:08.782Z,19.57
2019-04-29T22:45:33.800Z,19.60
2019-04-29T22:48:14.395Z,19.17
2019-04-29T22:50:38.079Z,20.13
2019-04-29T22:53:07.863Z,26.30
2019-04-29T22:55:38.846Z,20.63
2019-04-29T22:58:10.093Z,21.30
2019-04-29T23:00:39.811Z,21.40
2019-04-29T23:03:10.933Z,19.73
2019-04-29T23:05:40.522Z,30.87
2019-04-29T23:08:10.027Z,25.97
2019-04-29T23:10:39.632Z,20.40
2019-04-29T23:13:09.073Z,22.47
2019-04-29T23:15:38.546Z,28.10
2019-04-29T23:18:08.435Z,25.13
2019-04-29T23:20:39.581Z,27.30
2019-04-29T23:23:10.807Z,26.47
2019-04-29T23:25:41.813Z,25.63
2019-04-29T23:28:11.375Z,23.63
2019-04-29T23:30:40.975Z,23.73
2019-04-29T23:33:10.457Z,23.43
2019-04-29T23:35:41.021Z,25.37
2019-04-29T23:38:10.630Z,22.27
2019-04-29T23:40:40.447Z,22.87
2019-04-29T23:43:10.065Z,21.90
2019-04-29T23:45:39.556Z,23.23
2019-04-29T23:48:09.130Z,25.40
2019-04-29T23:50:38.497Z,24.43
2019-04-29T23:53:07.981Z,24.17
2019-04-29T23:55:37.379Z,18.90
2019-04-29T23:58:08.570Z,23.90
